sensor_id;sensor_type;location;lat;lon;timestamp;temperature;humidity
64062;DHT22;50308;47.438;-1.528;2023-10-31T00:02:08;14.40;99.90
64062;DHT22;50308;47.438;-1.528;2023-10-31T00:04:34;14.40;99.90
64062;DHT22;50308;47.438;-1.528;2023-10-31T00:06:59;14.40;99.90
64062;DHT22;50308;47.438;-1.528;2023-10-31T00:09:25;14.40;99.90
64062;DHT22;50308;47.438;-1.528;2023-10-31T00:11:51;14.40;99.90
64062;DHT22;50308;47.438;-1.528;2023-10-31T00:14:17;14.40;99.90
64062;DHT22;50308;47.438;-1.528;2023-10-31T00:16:42;14.50;99.90
64062;DHT22;50308;47.438;-1.528;2023-10-31T00:19:08;14.40;99.90
64062;DHT22;50308;47.438;-1.528;2023-10-31T00:21:34;14.50;99.90
64062;DHT22;50308;47.438;-1.528;2023-10-31T00:23:59;14.50;99.90
64062;DHT22;50308;47.438;-1.528;2023-10-31T00:26:25;14.50;99.90
64062;DHT22;50308;47.438;-1.528;2023-10-31T00:28:50;14.40;99.90
64062;DHT22;50308;47.438;-1.528;2023-10-31T00:31:17;14.50;99.90
64062;DHT22;50308;47.438;-1.528;2023-10-31T00:33:43;14.50;99.90
64062;DHT22;50308;47.438;-1.528;2023-10-31T00:36:08;14.50;99.90
64062;DHT22;50308;47.438;-1.528;2023-10-31T00:38:34;14.50;99.90
64062;DHT22;50308;47.438;-1.528;2023-10-31T00:41:00;14.50;99.90
64062;DHT22;50308;47.438;-1.528;2023-10-31T00:43:25;14.50;99.90
64062;DHT22;50308;47.438;-1.528;2023-10-31T00:45:51;14.50;99.90
64062;DHT22;50308;47.438;-1.528;2023-10-31T00:48:17;14.40;99.90
64062;DHT22;50308;47.438;-1.528;2023-10-31T00:50:43;14.40;99.90
64062;DHT22;50308;47.438;-1.528;2023-10-31T00:53:09;14.40;99.90
64062;DHT22;50308;47.438;-1.528;2023-10-31T00:55:35;14.50;99.90
64062;DHT22;50308;47.438;-1.528;2023-10-31T00:58:00;14.50;99.90
64062;DHT22;50308;47.438;-1.528;2023-10-31T01:00:26;14.50;99.90
64062;DHT22;50308;47.438;-1.528;2023-10-31T01:02:51;14.50;99.90
64062;DHT22;50308;47.438;-1.528;2023-10-31T01:05:17;14.50;99.90
64062;DHT22;50308;47.438;-1.528;2023-10-31T01:07:43;14.50;99.90
64062;DHT22;50308;47.438;-1.528;2023-10-31T01:10:08;14.50;99.90
64062;DHT22;50308;47.438;-1.528;2023-10-31T01:12:34;14.50;99.90
64062;DHT22;50308;47.438;-1.528;2023-10-31T01:15:00;14.50;99.90
64062;DHT22;50308;47.438;-1.528;2023-10-31T01:17:25;14.50;99.90
64062;DHT22;50308;47.438;-1.528;2023-10-31T01:19:51;14.50;99.90
64062;DHT22;50308;47.438;-1.528;2023-10-31T01:22:16;14.40;99.90
64062;DHT22;50308;47.438;-1.528;2023-10-31T01:24:42;14.50;99.90
64062;DHT22;50308;47.438;-1.528;2023-10-31T01:27:08;14.50;99.90
64062;DHT22;50308;47.438;-1.528;2023-10-31T01:29:34;14.40;99.90
64062;DHT22;50308;47.438;-1.528;2023-10-31T01:31:59;14.40;99.90
64062;DHT22;50308;47.438;-1.528;2023-10-31T01:34:25;14.40;99.90
64062;DHT22;50308;47.438;-1.528;2023-10-31T01:36:51;14.40;99.90
64062;DHT22;50308;47.438;-1.528;2023-10-31T01:39:16;14.40;99.90
64062;DHT22;50308;47.438;-1.528;2023-10-31T01:41:42;14.40;99.90
64062;DHT22;50308;47.438;-1.528;2023-10-31T01:44:09;14.40;99.90
64062;DHT22;50308;47.438;-1.528;2023-10-31T01:46:35;14.40;99.90
64062;DHT22;50308;47.438;-1.528;2023-10-31T01:49:01;14.30;99.90
64062;DHT22;50308;47.438;-1.528;2023-10-31T01:51:28;14.30;99.90
64062;DHT22;50308;47.438;-1.528;2023-10-31T01:53:54;14.40;99.90
64062;DHT22;50308;47.438;-1.528;2023-10-31T01:56:20;14.40;99.90
64062;DHT22;50308;47.438;-1.528;2023-10-31T01:58:48;14.40;99.90
64062;DHT22;50308;47.438;-1.528;2023-10-31T02:01:15;14.40;99.90
64062;DHT22;50308;47.438;-1.528;2023-10-31T02:03:41;14.40;99.90
64062;DHT22;50308;47.438;-1.528;2023-10-31T02:06:06;14.40;99.90
64062;DHT22;50308;47.438;-1.528;2023-10-31T02:08:32;14.30;99.90
64062;DHT22;50308;47.438;-1.528;2023-10-31T02:10:58;14.40;99.90
64062;DHT22;50308;47.438;-1.528;2023-10-31T02:13:24;14.40;99.90
64062;DHT22;50308;47.438;-1.528;2023-10-31T02:15:50;14.40;99.90
64062;DHT22;50308;47.438;-1.528;2023-10-31T02:18:15;14.30;99.90
64062;DHT22;50308;47.438;-1.528;2023-10-31T02:20:41;14.30;99.90
64062;DHT22;50308;47.438;-1.528;2023-10-31T02:23:07;14.30;99.90
64062;DHT22;50308;47.438;-1.528;2023-10-31T02:25:32;14.30;99.90
64062;DHT22;50308;47.438;-1.528;2023-10-31T02:27:58;14.30;99.90
64062;DHT22;50308;47.438;-1.528;2023-10-31T02:30:24;14.40;99.90
64062;DHT22;50308;47.438;-1.528;2023-10-31T02:32:50;14.40;99.90
64062;DHT22;50308;47.438;-1.528;2023-10-31T02:35:17;14.30;99.90
64062;DHT22;50308;47.438;-1.528;2023-10-31T02:37:44;14.30;99.90
64062;DHT22;50308;47.438;-1.528;2023-10-31T02:40:10;14.30;99.90
64062;DHT22;50308;47.438;-1.528;2023-10-31T02:42:36;14.30;99.90
64062;DHT22;50308;47.438;-1.528;2023-10-31T02:45:02;14.30;99.90
64062;DHT22;50308;47.438;-1.528;2023-10-31T02:47:28;14.30;99.90
64062;DHT22;50308;47.438;-1.528;2023-10-31T02:49:54;14.30;99.90
64062;DHT22;50308;47.438;-1.528;2023-10-31T02:52:19;14.30;99.90
64062;DHT22;50308;47.438;-1.528;2023-10-31T02:54:45;14.30;99.90
64062;DHT22;50308;47.438;-1.528;2023-10-31T02:57:11;14.30;99.90
64062;DHT22;50308;47.438;-1.528;2023-10-31T02:59:37;14.30;99.90
64062;DHT22;50308;47.438;-1.528;2023-10-31T03:02:02;14.20;99.90
64062;DHT22;50308;47.438;-1.528;2023-10-31T03:04:28;14.30;99.90
64062;DHT22;50308;47.438;-1.528;2023-10-31T03:06:53;14.20;99.90
64062;DHT22;50308;47.438;-1.528;2023-10-31T03:09:19;14.20;99.90
64062;DHT22;50308;47.438;-1.528;2023-10-31T03:11:45;14.20;99.90
64062;DHT22;50308;47.438;-1.528;2023-10-31T03:14:10;14.20;99.90
64062;DHT22;50308;47.438;-1.528;2023-10-31T03:16:36;14.10;99.90
64062;DHT22;50308;47.438;-1.528;2023-10-31T03:19:02;14.10;99.90
64062;DHT22;50308;47.438;-1.528;2023-10-31T03:21:27;14.10;99.90
64062;DHT22;50308;47.438;-1.528;2023-10-31T03:23:53;14.10;99.90
64062;DHT22;50308;47.438;-1.528;2023-10-31T03:26:21;14.00;99.90
64062;DHT22;50308;47.438;-1.528;2023-10-31T03:28:47;14.00;99.90
64062;DHT22;50308;47.438;-1.528;2023-10-31T03:31:13;14.00;99.90
64062;DHT22;50308;47.438;-1.528;2023-10-31T03:33:39;14.00;99.90
64062;DHT22;50308;47.438;-1.528;2023-10-31T03:36:05;14.00;99.90
64062;DHT22;50308;47.438;-1.528;2023-10-31T03:38:32;13.90;99.90
64062;DHT22;50308;47.438;-1.528;2023-10-31T03:40:57;13.90;99.90
64062;DHT22;50308;47.438;-1.528;2023-10-31T03:43:23;13.90;99.90
64062;DHT22;50308;47.438;-1.528;2023-10-31T03:45:49;13.90;99.90
64062;DHT22;50308;47.438;-1.528;2023-10-31T03:48:16;13.80;99.90
64062;DHT22;50308;47.438;-1.528;2023-10-31T03:50:42;13.80;99.90
64062;DHT22;50308;47.438;-1.528;2023-10-31T03:53:08;13.80;99.90
64062;DHT22;50308;47.438;-1.528;2023-10-31T03:55:34;13.80;99.90
64062;DHT22;50308;47.438;-1.528;2023-10-31T03:57:59;13.70;99.90
64062;DHT22;50308;47.438;-1.528;2023-10-31T04:00:25;13.70;99.90
64062;DHT22;50308;47.438;-1.528;2023-10-31T04:02:51;13.70;99.90
64062;DHT22;50308;47.438;-1.528;2023-10-31T04:05:16;13.70;99.90
64062;DHT22;50308;47.438;-1.528;2023-10-31T04:07:42;13.70;99.90
64062;DHT22;50308;47.438;-1.528;2023-10-31T04:10:08;13.70;99.90
64062;DHT22;50308;47.438;-1.528;2023-10-31T04:12:35;13.60;99.90
64062;DHT22;50308;47.438;-1.528;2023-10-31T04:15:01;13.60;99.90
64062;DHT22;50308;47.438;-1.528;2023-10-31T04:17:26;13.50;99.90
64062;DHT22;50308;47.438;-1.528;2023-10-31T04:19:52;13.50;99.90
64062;DHT22;50308;47.438;-1.528;2023-10-31T04:22:18;13.50;99.90
64062;DHT22;50308;47.438;-1.528;2023-10-31T04:24:43;13.50;99.90
64062;DHT22;50308;47.438;-1.528;2023-10-31T04:27:09;13.50;99.90
64062;DHT22;50308;47.438;-1.528;2023-10-31T04:29:35;13.50;99.90
64062;DHT22;50308;47.438;-1.528;2023-10-31T04:32:01;13.50;99.90
64062;DHT22;50308;47.438;-1.528;2023-10-31T04:34:27;13.50;99.90
64062;DHT22;50308;47.438;-1.528;2023-10-31T04:36:52;13.50;99.90
64062;DHT22;50308;47.438;-1.528;2023-10-31T04:39:18;13.50;99.90
64062;DHT22;50308;47.438;-1.528;2023-10-31T04:41:44;13.40;99.90
64062;DHT22;50308;47.438;-1.528;2023-10-31T04:44:09;13.50;99.90
64062;DHT22;50308;47.438;-1.528;2023-10-31T04:46:35;13.50;99.90
64062;DHT22;50308;47.438;-1.528;2023-10-31T04:49:00;13.50;99.90
64062;DHT22;50308;47.438;-1.528;2023-10-31T04:51:26;13.50;99.90
64062;DHT22;50308;47.438;-1.528;2023-10-31T04:53:52;13.50;99.90
64062;DHT22;50308;47.438;-1.528;2023-10-31T04:56:17;13.50;99.90
64062;DHT22;50308;47.438;-1.528;2023-10-31T04:58:44;13.50;99.90
64062;DHT22;50308;47.438;-1.528;2023-10-31T05:01:13;13.60;99.90
64062;DHT22;50308;47.438;-1.528;2023-10-31T05:03:39;13.60;99.90
64062;DHT22;50308;47.438;-1.528;2023-10-31T05:06:05;13.60;99.90
64062;DHT22;50308;47.438;-1.528;2023-10-31T05:08:31;13.60;99.90
64062;DHT22;50308;47.438;-1.528;2023-10-31T05:10:58;13.60;99.90
64062;DHT22;50308;47.438;-1.528;2023-10-31T05:13:24;13.60;99.90
64062;DHT22;50308;47.438;-1.528;2023-10-31T05:15:50;13.60;99.90
64062;DHT22;50308;47.438;-1.528;2023-10-31T05:18:16;13.60;99.90
64062;DHT22;50308;47.438;-1.528;2023-10-31T05:20:42;13.60;99.90
64062;DHT22;50308;47.438;-1.528;2023-10-31T05:23:08;13.60;99.90
64062;DHT22;50308;47.438;-1.528;2023-10-31T05:25:34;13.60;99.90
64062;DHT22;50308;47.438;-1.528;2023-10-31T05:28:00;13.60;99.90
64062;DHT22;50308;47.438;-1.528;2023-10-31T05:30:26;13.60;99.90
64062;DHT22;50308;47.438;-1.528;2023-10-31T05:32:52;13.50;99.90
64062;DHT22;50308;47.438;-1.528;2023-10-31T05:35:18;13.50;99.90
64062;DHT22;50308;47.438;-1.528;2023-10-31T05:37:45;13.50;99.90
64062;DHT22;50308;47.438;-1.528;2023-10-31T05:40:12;13.50;99.90
64062;DHT22;50308;47.438;-1.528;2023-10-31T05:42:38;13.50;99.90
64062;DHT22;50308;47.438;-1.528;2023-10-31T05:45:04;13.50;99.90
64062;DHT22;50308;47.438;-1.528;2023-10-31T05:47:30;13.40;99.90
64062;DHT22;50308;47.438;-1.528;2023-10-31T05:49:56;13.40;99.90
64062;DHT22;50308;47.438;-1.528;2023-10-31T05:52:21;13.40;99.90
64062;DHT22;50308;47.438;-1.528;2023-10-31T05:54:47;13.40;99.90
64062;DHT22;50308;47.438;-1.528;2023-10-31T05:57:13;13.40;99.90
64062;DHT22;50308;47.438;-1.528;2023-10-31T05:59:38;13.40;99.90
64062;DHT22;50308;47.438;-1.528;2023-10-31T06:02:04;13.40;99.90
64062;DHT22;50308;47.438;-1.528;2023-10-31T06:04:30;13.40;99.90
64062;DHT22;50308;47.438;-1.528;2023-10-31T06:06:55;13.30;99.90
64062;DHT22;50308;47.438;-1.528;2023-10-31T06:09:21;13.30;99.90
64062;DHT22;50308;47.438;-1.528;2023-10-31T06:11:46;13.30;99.90
64062;DHT22;50308;47.438;-1.528;2023-10-31T06:14:13;13.30;99.90
64062;DHT22;50308;47.438;-1.528;2023-10-31T06:16:42;13.30;99.90
64062;DHT22;50308;47.438;-1.528;2023-10-31T06:19:08;13.30;99.90
64062;DHT22;50308;47.438;-1.528;2023-10-31T06:21:34;13.30;99.90
64062;DHT22;50308;47.438;-1.528;2023-10-31T06:23:59;13.20;99.90
64062;DHT22;50308;47.438;-1.528;2023-10-31T06:26:25;13.20;99.90
64062;DHT22;50308;47.438;-1.528;2023-10-31T06:28:51;13.20;99.90
64062;DHT22;50308;47.438;-1.528;2023-10-31T06:31:16;13.10;99.90
64062;DHT22;50308;47.438;-1.528;2023-10-31T06:33:42;13.20;99.90
64062;DHT22;50308;47.438;-1.528;2023-10-31T06:36:08;13.10;99.90
64062;DHT22;50308;47.438;-1.528;2023-10-31T06:38:34;13.10;99.90
64062;DHT22;50308;47.438;-1.528;2023-10-31T06:41:00;13.10;99.90
64062;DHT22;50308;47.438;-1.528;2023-10-31T06:43:25;13.10;99.90
64062;DHT22;50308;47.438;-1.528;2023-10-31T06:45:53;13.10;99.90
64062;DHT22;50308;47.438;-1.528;2023-10-31T06:48:18;13.10;99.90
64062;DHT22;50308;47.438;-1.528;2023-10-31T06:50:44;13.10;99.90
64062;DHT22;50308;47.438;-1.528;2023-10-31T06:53:10;13.10;99.90
64062;DHT22;50308;47.438;-1.528;2023-10-31T06:55:35;13.10;99.90
64062;DHT22;50308;47.438;-1.528;2023-10-31T06:58:01;13.10;99.90
64062;DHT22;50308;47.438;-1.528;2023-10-31T07:00:27;13.00;99.90
64062;DHT22;50308;47.438;-1.528;2023-10-31T07:02:53;13.00;99.90
64062;DHT22;50308;47.438;-1.528;2023-10-31T07:05:18;13.00;99.90
64062;DHT22;50308;47.438;-1.528;2023-10-31T07:07:46;13.00;99.90
64062;DHT22;50308;47.438;-1.528;2023-10-31T07:10:12;13.10;99.90
64062;DHT22;50308;47.438;-1.528;2023-10-31T07:12:37;13.10;99.90
64062;DHT22;50308;47.438;-1.528;2023-10-31T07:15:03;13.10;99.90
64062;DHT22;50308;47.438;-1.528;2023-10-31T07:17:30;13.10;99.90
64062;DHT22;50308;47.438;-1.528;2023-10-31T07:19:56;13.10;99.90
64062;DHT22;50308;47.438;-1.528;2023-10-31T07:22:22;13.20;99.90
64062;DHT22;50308;47.438;-1.528;2023-10-31T07:24:50;13.20;99.90
64062;DHT22;50308;47.438;-1.528;2023-10-31T07:27:16;13.30;99.90
64062;DHT22;50308;47.438;-1.528;2023-10-31T07:29:42;13.30;99.90
64062;DHT22;50308;47.438;-1.528;2023-10-31T07:32:08;13.40;99.90
64062;DHT22;50308;47.438;-1.528;2023-10-31T07:34:34;13.40;99.90
64062;DHT22;50308;47.438;-1.528;2023-10-31T07:37:00;13.50;99.90
64062;DHT22;50308;47.438;-1.528;2023-10-31T07:39:26;13.50;99.90
64062;DHT22;50308;47.438;-1.528;2023-10-31T07:41:51;13.60;99.90
64062;DHT22;50308;47.438;-1.528;2023-10-31T07:44:17;13.70;99.90
64062;DHT22;50308;47.438;-1.528;2023-10-31T07:46:43;13.70;99.90
64062;DHT22;50308;47.438;-1.528;2023-10-31T07:49:08;13.80;99.90
64062;DHT22;50308;47.438;-1.528;2023-10-31T07:51:34;13.80;99.90
64062;DHT22;50308;47.438;-1.528;2023-10-31T07:54:00;13.90;99.90
64062;DHT22;50308;47.438;-1.528;2023-10-31T07:56:26;13.90;99.90
64062;DHT22;50308;47.438;-1.528;2023-10-31T07:58:52;14.00;99.90
64062;DHT22;50308;47.438;-1.528;2023-10-31T08:01:18;14.10;99.90
64062;DHT22;50308;47.438;-1.528;2023-10-31T08:03:45;14.20;99.90
64062;DHT22;50308;47.438;-1.528;2023-10-31T08:06:11;14.20;99.90
64062;DHT22;50308;47.438;-1.528;2023-10-31T08:08:36;14.30;99.90
64062;DHT22;50308;47.438;-1.528;2023-10-31T08:11:02;14.40;99.90
64062;DHT22;50308;47.438;-1.528;2023-10-31T08:13:29;14.40;99.90
64062;DHT22;50308;47.438;-1.528;2023-10-31T08:15:55;14.50;99.90
64062;DHT22;50308;47.438;-1.528;2023-10-31T08:18:22;14.50;99.90
64062;DHT22;50308;47.438;-1.528;2023-10-31T08:20:48;14.50;99.90
64062;DHT22;50308;47.438;-1.528;2023-10-31T08:23:16;14.60;99.90
64062;DHT22;50308;47.438;-1.528;2023-10-31T08:25:43;14.60;99.90
64062;DHT22;50308;47.438;-1.528;2023-10-31T08:28:09;14.60;99.90
64062;DHT22;50308;47.438;-1.528;2023-10-31T08:30:34;14.60;99.90
64062;DHT22;50308;47.438;-1.528;2023-10-31T08:33:01;14.70;99.90
64062;DHT22;50308;47.438;-1.528;2023-10-31T08:35:26;14.70;99.90
64062;DHT22;50308;47.438;-1.528;2023-10-31T08:37:53;14.80;99.90
64062;DHT22;50308;47.438;-1.528;2023-10-31T08:40:19;14.80;99.90
64062;DHT22;50308;47.438;-1.528;2023-10-31T08:42:45;14.80;99.90
64062;DHT22;50308;47.438;-1.528;2023-10-31T08:45:11;14.80;99.90
64062;DHT22;50308;47.438;-1.528;2023-10-31T08:47:36;14.80;99.90
64062;DHT22;50308;47.438;-1.528;2023-10-31T08:50:02;14.80;99.90
64062;DHT22;50308;47.438;-1.528;2023-10-31T08:52:28;14.90;99.90
64062;DHT22;50308;47.438;-1.528;2023-10-31T08:54:54;14.90;99.90
64062;DHT22;50308;47.438;-1.528;2023-10-31T08:57:19;14.90;99.90
64062;DHT22;50308;47.438;-1.528;2023-10-31T08:59:45;15.00;99.90
64062;DHT22;50308;47.438;-1.528;2023-10-31T09:02:10;15.00;99.90
64062;DHT22;50308;47.438;-1.528;2023-10-31T09:04:36;15.00;99.90
64062;DHT22;50308;47.438;-1.528;2023-10-31T09:07:02;15.00;99.90
64062;DHT22;50308;47.438;-1.528;2023-10-31T09:09:27;15.00;99.90
64062;DHT22;50308;47.438;-1.528;2023-10-31T09:11:53;15.00;99.90
64062;DHT22;50308;47.438;-1.528;2023-10-31T09:14:19;15.10;99.90
64062;DHT22;50308;47.438;-1.528;2023-10-31T09:16:45;15.10;99.90
64062;DHT22;50308;47.438;-1.528;2023-10-31T09:19:10;15.10;99.90
64062;DHT22;50308;47.438;-1.528;2023-10-31T09:21:36;15.10;99.90
64062;DHT22;50308;47.438;-1.528;2023-10-31T09:24:02;15.10;99.90
64062;DHT22;50308;47.438;-1.528;2023-10-31T09:26:28;15.10;99.90
64062;DHT22;50308;47.438;-1.528;2023-10-31T09:28:54;15.20;99.90
64062;DHT22;50308;47.438;-1.528;2023-10-31T09:31:20;15.20;99.90
64062;DHT22;50308;47.438;-1.528;2023-10-31T09:33:46;15.20;99.90
64062;DHT22;50308;47.438;-1.528;2023-10-31T09:36:12;15.20;99.90
64062;DHT22;50308;47.438;-1.528;2023-10-31T09:38:39;15.20;99.90
64062;DHT22;50308;47.438;-1.528;2023-10-31T09:41:05;15.20;99.90
64062;DHT22;50308;47.438;-1.528;2023-10-31T09:43:31;15.30;99.90
64062;DHT22;50308;47.438;-1.528;2023-10-31T09:45:57;15.30;99.90
64062;DHT22;50308;47.438;-1.528;2023-10-31T09:48:23;15.30;99.90
64062;DHT22;50308;47.438;-1.528;2023-10-31T09:50:49;15.20;99.90
64062;DHT22;50308;47.438;-1.528;2023-10-31T09:53:16;15.30;99.90
64062;DHT22;50308;47.438;-1.528;2023-10-31T09:55:45;15.30;99.90
64062;DHT22;50308;47.438;-1.528;2023-10-31T09:58:11;15.30;99.90
64062;DHT22;50308;47.438;-1.528;2023-10-31T10:00:37;15.30;99.90
64062;DHT22;50308;47.438;-1.528;2023-10-31T10:03:04;15.30;99.90
64062;DHT22;50308;47.438;-1.528;2023-10-31T10:05:33;15.30;99.90
64062;DHT22;50308;47.438;-1.528;2023-10-31T10:08:00;15.40;99.90
64062;DHT22;50308;47.438;-1.528;2023-10-31T10:10:26;15.40;99.90
64062;DHT22;50308;47.438;-1.528;2023-10-31T10:12:52;15.40;99.90
64062;DHT22;50308;47.438;-1.528;2023-10-31T10:15:18;15.40;99.90
64062;DHT22;50308;47.438;-1.528;2023-10-31T10:17:51;15.40;99.90
64062;DHT22;50308;47.438;-1.528;2023-10-31T10:20:17;15.40;99.90
64062;DHT22;50308;47.438;-1.528;2023-10-31T10:22:44;15.40;99.90
64062;DHT22;50308;47.438;-1.528;2023-10-31T10:25:11;15.40;99.90
64062;DHT22;50308;47.438;-1.528;2023-10-31T10:27:41;15.50;99.90
64062;DHT22;50308;47.438;-1.528;2023-10-31T10:30:10;15.50;99.90
64062;DHT22;50308;47.438;-1.528;2023-10-31T10:32:36;15.50;99.90
64062;DHT22;50308;47.438;-1.528;2023-10-31T10:35:02;15.50;99.90
64062;DHT22;50308;47.438;-1.528;2023-10-31T10:37:28;15.50;99.90
64062;DHT22;50308;47.438;-1.528;2023-10-31T10:39:56;15.50;99.90
64062;DHT22;50308;47.438;-1.528;2023-10-31T10:42:44;15.50;99.90
64062;DHT22;50308;47.438;-1.528;2023-10-31T10:45:13;15.50;99.90
64062;DHT22;50308;47.438;-1.528;2023-10-31T10:47:39;15.50;99.90
64062;DHT22;50308;47.438;-1.528;2023-10-31T10:50:06;15.50;99.90
64062;DHT22;50308;47.438;-1.528;2023-10-31T10:52:44;15.50;99.90
64062;DHT22;50308;47.438;-1.528;2023-10-31T10:55:13;15.50;99.90
64062;DHT22;50308;47.438;-1.528;2023-10-31T10:57:56;15.50;99.90
64062;DHT22;50308;47.438;-1.528;2023-10-31T11:00:22;15.50;99.90
64062;DHT22;50308;47.438;-1.528;2023-10-31T11:02:51;15.50;99.90
64062;DHT22;50308;47.438;-1.528;2023-10-31T11:05:18;15.50;99.90
64062;DHT22;50308;47.438;-1.528;2023-10-31T11:07:45;15.50;99.90
64062;DHT22;50308;47.438;-1.528;2023-10-31T11:10:11;15.50;99.90
64062;DHT22;50308;47.438;-1.528;2023-10-31T11:12:38;15.60;99.90
64062;DHT22;50308;47.438;-1.528;2023-10-31T11:15:07;15.60;99.90
64062;DHT22;50308;47.438;-1.528;2023-10-31T11:17:37;15.60;99.90
64062;DHT22;50308;47.438;-1.528;2023-10-31T11:20:04;15.60;99.90
64062;DHT22;50308;47.438;-1.528;2023-10-31T11:22:43;15.60;99.90
64062;DHT22;50308;47.438;-1.528;2023-10-31T11:25:14;15.60;99.90
64062;DHT22;50308;47.438;-1.528;2023-10-31T11:27:41;15.60;99.90
64062;DHT22;50308;47.438;-1.528;2023-10-31T11:30:27;15.60;99.90
64062;DHT22;50308;47.438;-1.528;2023-10-31T11:32:54;15.60;99.90
64062;DHT22;50308;47.438;-1.528;2023-10-31T11:35:21;15.70;99.90
64062;DHT22;50308;47.438;-1.528;2023-10-31T11:37:48;15.70;99.90
64062;DHT22;50308;47.438;-1.528;2023-10-31T11:42:51;15.70;99.90
64062;DHT22;50308;47.438;-1.528;2023-10-31T11:45:35;15.70;99.90
64062;DHT22;50308;47.438;-1.528;2023-10-31T11:48:06;15.70;99.90
64062;DHT22;50308;47.438;-1.528;2023-10-31T11:50:32;15.70;99.90
64062;DHT22;50308;47.438;-1.528;2023-10-31T11:55:38;15.70;99.90
64062;DHT22;50308;47.438;-1.528;2023-10-31T11:58:24;15.70;99.90
64062;DHT22;50308;47.438;-1.528;2023-10-31T12:01:03;15.70;99.90
64062;DHT22;50308;47.438;-1.528;2023-10-31T12:03:40;15.70;99.90
64062;DHT22;50308;47.438;-1.528;2023-10-31T12:06:07;15.80;99.90
64062;DHT22;50308;47.438;-1.528;2023-10-31T12:08:38;15.80;99.90
64062;DHT22;50308;47.438;-1.528;2023-10-31T12:11:05;15.80;99.90
64062;DHT22;50308;47.438;-1.528;2023-10-31T12:13:31;15.80;99.90
64062;DHT22;50308;47.438;-1.528;2023-10-31T12:15:56;15.70;99.90
64062;DHT22;50308;47.438;-1.528;2023-10-31T12:18:22;15.80;99.90
64062;DHT22;50308;47.438;-1.528;2023-10-31T12:20:48;15.80;99.90
64062;DHT22;50308;47.438;-1.528;2023-10-31T12:23:15;15.80;99.90
64062;DHT22;50308;47.438;-1.528;2023-10-31T12:26:07;15.80;99.90
64062;DHT22;50308;47.438;-1.528;2023-10-31T12:28:32;15.90;99.90
64062;DHT22;50308;47.438;-1.528;2023-10-31T12:30:58;15.80;99.90
64062;DHT22;50308;47.438;-1.528;2023-10-31T12:33:27;15.90;99.90
64062;DHT22;50308;47.438;-1.528;2023-10-31T12:35:57;15.90;99.90
64062;DHT22;50308;47.438;-1.528;2023-10-31T12:38:23;15.80;99.90
64062;DHT22;50308;47.438;-1.528;2023-10-31T12:40:49;15.90;99.90
64062;DHT22;50308;47.438;-1.528;2023-10-31T12:43:16;15.90;99.90
64062;DHT22;50308;47.438;-1.528;2023-10-31T12:45:42;15.90;99.90
64062;DHT22;50308;47.438;-1.528;2023-10-31T12:48:09;15.90;99.90
64062;DHT22;50308;47.438;-1.528;2023-10-31T12:50:36;15.90;99.90
64062;DHT22;50308;47.438;-1.528;2023-10-31T12:53:03;15.90;99.90
64062;DHT22;50308;47.438;-1.528;2023-10-31T12:55:30;15.90;99.90
64062;DHT22;50308;47.438;-1.528;2023-10-31T12:57:57;16.00;99.90
64062;DHT22;50308;47.438;-1.528;2023-10-31T13:00:33;15.90;99.90
64062;DHT22;50308;47.438;-1.528;2023-10-31T13:03:04;15.90;99.90
64062;DHT22;50308;47.438;-1.528;2023-10-31T13:05:31;15.90;99.90
64062;DHT22;50308;47.438;-1.528;2023-10-31T13:07:57;15.90;99.90
64062;DHT22;50308;47.438;-1.528;2023-10-31T13:10:28;15.90;99.90
64062;DHT22;50308;47.438;-1.528;2023-10-31T13:12:55;15.90;99.90
64062;DHT22;50308;47.438;-1.528;2023-10-31T13:15:22;15.90;99.90
64062;DHT22;50308;47.438;-1.528;2023-10-31T13:17:49;16.00;99.90
64062;DHT22;50308;47.438;-1.528;2023-10-31T13:20:17;16.00;99.90
64062;DHT22;50308;47.438;-1.528;2023-10-31T13:22:43;16.00;99.90
64062;DHT22;50308;47.438;-1.528;2023-10-31T13:25:11;15.90;99.90
64062;DHT22;50308;47.438;-1.528;2023-10-31T13:27:38;16.00;99.90
64062;DHT22;50308;47.438;-1.528;2023-10-31T13:30:04;16.00;99.90
64062;DHT22;50308;47.438;-1.528;2023-10-31T13:32:31;16.00;99.90
64062;DHT22;50308;47.438;-1.528;2023-10-31T13:34:56;16.00;99.90
64062;DHT22;50308;47.438;-1.528;2023-10-31T13:37:22;16.00;99.90
64062;DHT22;50308;47.438;-1.528;2023-10-31T13:39:48;16.00;99.90
64062;DHT22;50308;47.438;-1.528;2023-10-31T13:42:14;16.00;99.90
64062;DHT22;50308;47.438;-1.528;2023-10-31T13:44:41;16.00;99.90
64062;DHT22;50308;47.438;-1.528;2023-10-31T13:47:07;16.00;99.90
64062;DHT22;50308;47.438;-1.528;2023-10-31T13:49:32;16.00;99.90
64062;DHT22;50308;47.438;-1.528;2023-10-31T13:51:58;16.00;99.90
64062;DHT22;50308;47.438;-1.528;2023-10-31T13:54:24;16.00;99.90
64062;DHT22;50308;47.438;-1.528;2023-10-31T13:56:50;16.00;99.90
64062;DHT22;50308;47.438;-1.528;2023-10-31T13:59:16;16.00;99.90
64062;DHT22;50308;47.438;-1.528;2023-10-31T14:01:44;16.00;99.90
64062;DHT22;50308;47.438;-1.528;2023-10-31T14:04:11;16.10;99.90
64062;DHT22;50308;47.438;-1.528;2023-10-31T14:06:39;16.10;99.90
64062;DHT22;50308;47.438;-1.528;2023-10-31T14:09:05;16.00;99.90
64062;DHT22;50308;47.438;-1.528;2023-10-31T14:11:32;16.10;99.90
64062;DHT22;50308;47.438;-1.528;2023-10-31T14:13:59;16.10;99.90
64062;DHT22;50308;47.438;-1.528;2023-10-31T14:16:29;16.10;99.90
64062;DHT22;50308;47.438;-1.528;2023-10-31T14:18:58;16.10;99.90
64062;DHT22;50308;47.438;-1.528;2023-10-31T14:21:23;16.10;99.90
64062;DHT22;50308;47.438;-1.528;2023-10-31T14:23:51;16.10;99.90
64062;DHT22;50308;47.438;-1.528;2023-10-31T14:26:23;16.10;99.90
64062;DHT22;50308;47.438;-1.528;2023-10-31T14:28:49;16.10;99.90
64062;DHT22;50308;47.438;-1.528;2023-10-31T14:31:16;16.10;99.90
64062;DHT22;50308;47.438;-1.528;2023-10-31T14:33:42;16.10;99.90
64062;DHT22;50308;47.438;-1.528;2023-10-31T14:36:11;16.10;99.90
64062;DHT22;50308;47.438;-1.528;2023-10-31T14:38:39;16.10;99.90
64062;DHT22;50308;47.438;-1.528;2023-10-31T14:41:05;16.10;99.90
64062;DHT22;50308;47.438;-1.528;2023-10-31T14:43:30;16.10;99.90
64062;DHT22;50308;47.438;-1.528;2023-10-31T14:45:57;16.10;99.90
64062;DHT22;50308;47.438;-1.528;2023-10-31T14:48:23;16.10;99.90
64062;DHT22;50308;47.438;-1.528;2023-10-31T14:50:49;16.10;99.90
64062;DHT22;50308;47.438;-1.528;2023-10-31T14:53:15;16.10;99.90
64062;DHT22;50308;47.438;-1.528;2023-10-31T14:55:41;16.10;99.90
64062;DHT22;50308;47.438;-1.528;2023-10-31T14:58:07;16.10;99.90
64062;DHT22;50308;47.438;-1.528;2023-10-31T15:00:36;16.20;99.90
64062;DHT22;50308;47.438;-1.528;2023-10-31T15:03:01;16.10;99.90
64062;DHT22;50308;47.438;-1.528;2023-10-31T15:05:27;16.10;99.90
64062;DHT22;50308;47.438;-1.528;2023-10-31T15:07:53;16.20;99.90
64062;DHT22;50308;47.438;-1.528;2023-10-31T15:10:19;16.10;99.90
64062;DHT22;50308;47.438;-1.528;2023-10-31T15:12:48;16.20;99.90
64062;DHT22;50308;47.438;-1.528;2023-10-31T15:15:15;16.10;99.90
64062;DHT22;50308;47.438;-1.528;2023-10-31T15:17:41;16.20;99.90